createdAt,value
2019-05-06T00:00:55.380Z,9.47
2019-05-06T00:03:16.030Z,8.70
2019-05-06T00:05:45.737Z,7.43
2019-05-06T00:08:15.475Z,8.97
2019-05-06T00:10:45.134Z,7.33
2019-05-06T00:13:14.812Z,7.43
2019-05-06T00:15:44.495Z,9.27
2019-05-06T00:18:14.167Z,11.17
2019-05-06T00:20:43.950Z,9.33
2019-05-06T00:23:25.017Z,10.90
2019-05-06T00:26:13.670Z,10.70
2019-05-06T00:28:56.015Z,8.97
2019-05-06T00:31:25.775Z,9.33
2019-05-06T00:33:55.486Z,7.37
2019-05-06T00:36:25.150Z,5.93
2019-05-06T00:38:58.067Z,6.97
2019-05-06T00:41:29.707Z,7.00
2019-05-06T00:43:59.419Z,6.70
2019-05-06T00:46:29.131Z,7.20
2019-05-06T00:48:58.893Z,5.83
2019-05-06T00:51:28.556Z,5.50
2019-05-06T00:54:06.750Z,4.60
2019-05-06T00:56:36.448Z,6.77
2019-05-06T00:59:06.093Z,5.70
2019-05-06T01:01:35.787Z,6.50
2019-05-06T01:04:05.871Z,5.73
2019-05-06T01:06:35.541Z,6.17
2019-05-06T01:09:10.552Z,4.83
2019-05-06T01:11:40.503Z,5.67
2019-05-06T01:14:15.188Z,5.30
2019-05-06T01:16:44.970Z,5.77
2019-05-06T01:19:14.728Z,7.03
2019-05-06T01:21:44.792Z,5.80
2019-05-06T01:24:14.855Z,5.40
2019-05-06T01:26:44.584Z,4.80
2019-05-06T01:29:14.671Z,5.00
2019-05-06T01:31:46.117Z,5.63
2019-05-06T01:34:16.168Z,4.67
2019-05-06T01:36:45.917Z,4.13
2019-05-06T01:39:34.026Z,6.87
2019-05-06T01:42:14.691Z,6.33
2019-05-06T01:44:44.415Z,5.17
2019-05-06T01:47:14.605Z,4.43
2019-05-06T01:49:44.496Z,4.50
2019-05-06T01:52:14.682Z,4.07
2019-05-06T01:54:44.571Z,4.97
2019-05-06T01:57:14.264Z,4.73
2019-05-06T01:59:44.419Z,4.53
2019-05-06T02:02:14.477Z,4.20
2019-05-06T02:04:44.439Z,3.23
2019-05-06T02:07:14.576Z,5.53
2019-05-06T02:09:44.887Z,5.10
2019-05-06T02:12:14.936Z,4.37
2019-05-06T02:14:44.629Z,4.63
2019-05-06T02:17:14.528Z,4.57
2019-05-06T02:19:44.347Z,6.70
2019-05-06T02:22:24.095Z,3.70
2019-05-06T02:25:09.087Z,17.00
2019-05-06T02:27:38.793Z,8.63
2019-05-06T02:30:31.238Z,7.43
2019-05-06T02:33:10.409Z,11.07
2019-05-06T02:35:54.904Z,16.27
2019-05-06T02:38:33.261Z,5.93
2019-05-06T02:40:57.528Z,6.47
2019-05-06T02:43:27.205Z,8.03
2019-05-06T02:45:56.886Z,6.43
2019-05-06T02:48:45.487Z,8.77
2019-05-06T02:51:17.757Z,6.70
2019-05-06T02:53:47.472Z,5.83
2019-05-06T02:56:17.189Z,5.50
2019-05-06T02:58:46.882Z,4.37
2019-05-06T03:01:16.610Z,6.40
2019-05-06T03:03:46.364Z,6.10
2019-05-06T03:06:16.020Z,5.17
2019-05-06T03:08:45.779Z,5.47
2019-05-06T03:11:15.461Z,7.57
2019-05-06T03:13:45.132Z,6.90
2019-05-06T03:16:14.837Z,6.10
2019-05-06T03:18:44.489Z,7.03
2019-05-06T03:21:33.792Z,6.10
2019-05-06T03:24:23.444Z,7.10
2019-05-06T03:26:56.980Z,9.70
2019-05-06T03:29:25.514Z,7.47
2019-05-06T03:31:56.872Z,7.47
2019-05-06T03:34:49.176Z,6.77
2019-05-06T03:36:58.219Z,4.90
2019-05-06T03:39:27.961Z,5.90
2019-05-06T03:41:57.668Z,7.03
2019-05-06T03:44:27.359Z,4.97
2019-05-06T03:47:23.453Z,9.50
2019-05-06T03:49:54.546Z,8.83
2019-05-06T03:52:27.971Z,8.80
2019-05-06T03:54:58.634Z,11.77
2019-05-06T03:57:29.196Z,10.37
2019-05-06T04:00:04.249Z,11.40
2019-05-06T04:02:33.595Z,13.00
2019-05-06T04:05:04.275Z,8.50
2019-05-06T04:07:35.298Z,8.40
2019-05-06T04:10:05.552Z,7.33
2019-05-06T04:12:37.726Z,5.77
2019-05-06T04:15:07.910Z,10.63
2019-05-06T04:17:44.211Z,5.80
2019-05-06T04:20:34.258Z,7.97
2019-05-06T04:23:13.504Z,7.77
2019-05-06T04:26:14.250Z,4.67
2019-05-06T04:28:44.149Z,8.03
2019-05-06T04:31:14.200Z,4.73
2019-05-06T04:33:55.529Z,7.27
2019-05-06T04:36:15.246Z,5.90
2019-05-06T04:38:44.970Z,6.90
2019-05-06T04:41:14.951Z,4.30
2019-05-06T04:43:45.941Z,4.10
2019-05-06T04:46:16.870Z,3.63
2019-05-06T04:48:46.907Z,5.57
2019-05-06T04:51:16.738Z,5.07
2019-05-06T04:53:47.615Z,6.53
2019-05-06T04:56:17.335Z,5.30
2019-05-06T04:58:47.098Z,6.57
2019-05-06T05:01:17.027Z,6.50
2019-05-06T05:03:46.870Z,6.10
2019-05-06T05:06:16.748Z,4.13
2019-05-06T05:08:47.093Z,6.43
2019-05-06T05:11:44.945Z,9.10
2019-05-06T05:14:25.799Z,4.90
2019-05-06T05:17:14.785Z,6.93
2019-05-06T05:19:44.529Z,8.37
2019-05-06T05:22:14.210Z,7.03
2019-05-06T05:24:44.948Z,6.47
2019-05-06T05:27:15.286Z,7.23
2019-05-06T05:29:45.097Z,4.73
2019-05-06T05:32:14.803Z,9.17
2019-05-06T05:34:45.209Z,3.50
2019-05-06T05:37:14.936Z,7.70
2019-05-06T05:39:44.643Z,4.77
2019-05-06T05:42:39.391Z,5.63
2019-05-06T05:45:10.177Z,6.33
2019-05-06T05:47:42.398Z,9.17
2019-05-06T05:50:22.659Z,5.93
2019-05-06T05:52:52.028Z,4.50
2019-05-06T05:55:22.053Z,6.37
2019-05-06T05:57:52.063Z,5.17
2019-05-06T06:00:24.030Z,6.00
2019-05-06T06:02:53.836Z,5.63
2019-05-06T06:05:23.679Z,4.03
2019-05-06T06:07:53.408Z,3.23
2019-05-06T06:10:44.373Z,5.30
2019-05-06T06:13:14.110Z,4.27
2019-05-06T06:16:05.890Z,4.80
2019-05-06T06:19:00.645Z,7.37
2019-05-06T06:21:42.644Z,4.10
2019-05-06T06:24:23.457Z,4.60
2019-05-06T06:26:53.261Z,5.90
2019-05-06T06:29:23.047Z,7.70
2019-05-06T06:32:30.000Z,6.80
2019-05-06T06:35:19.239Z,4.90
2019-05-06T06:38:12.327Z,4.77
2019-05-06T06:40:42.567Z,4.10
2019-05-06T06:43:17.161Z,5.77
2019-05-06T06:45:46.948Z,4.17
2019-05-06T06:48:16.661Z,9.07
2019-05-06T06:50:46.504Z,5.77
2019-05-06T06:53:16.863Z,6.00
2019-05-06T06:55:47.940Z,4.30
2019-05-06T06:58:37.498Z,3.77
2019-05-06T07:01:23.598Z,5.07
2019-05-06T07:04:04.683Z,3.73
2019-05-06T07:06:47.802Z,8.57
2019-05-06T07:09:17.618Z,5.07
2019-05-06T07:11:47.345Z,4.40
2019-05-06T07:14:17.055Z,4.77
2019-05-06T07:16:46.788Z,2.60
2019-05-06T07:19:19.840Z,2.47
2019-05-06T07:21:59.319Z,3.70
2019-05-06T07:24:29.171Z,3.53
2019-05-06T07:27:12.526Z,3.23
2019-05-06T07:29:48.144Z,8.67
2019-05-06T07:32:13.803Z,4.30
2019-05-06T07:34:43.536Z,10.40
2019-05-06T07:37:13.327Z,3.47
2019-05-06T07:39:43.249Z,2.37
2019-05-06T07:42:19.391Z,3.30
2019-05-06T07:45:08.076Z,3.33
2019-05-06T07:47:45.948Z,4.17
2019-05-06T07:50:15.753Z,3.80
2019-05-06T07:53:04.388Z,3.30
2019-05-06T07:55:34.188Z,3.47
2019-05-06T07:58:04.009Z,4.17
2019-05-06T08:00:34.270Z,4.47
2019-05-06T08:03:03.987Z,3.80
2019-05-06T08:05:33.739Z,2.47
2019-05-06T08:08:03.880Z,3.47
2019-05-06T08:10:34.283Z,2.93
2019-05-06T08:13:03.968Z,3.40
2019-05-06T08:15:33.702Z,5.93
2019-05-06T08:18:03.768Z,2.87
2019-05-06T08:20:42.845Z,1.93
2019-05-06T08:23:22.070Z,2.00
2019-05-06T08:25:57.625Z,1.73
2019-05-06T08:28:37.502Z,3.63
2019-05-06T08:30:55.545Z,4.27
2019-05-06T08:33:27.662Z,1.70
2019-05-06T08:36:08.933Z,1.60
2019-05-06T08:38:28.166Z,1.93
2019-05-06T08:40:57.903Z,1.50
2019-05-06T08:43:27.636Z,2.20
2019-05-06T08:45:57.342Z,1.70
2019-05-06T08:48:27.035Z,2.27
2019-05-06T08:51:22.371Z,2.20
2019-05-06T08:54:03.291Z,1.97
2019-05-06T08:56:33.015Z,2.23
2019-05-06T08:59:03.234Z,2.77
2019-05-06T09:01:46.604Z,2.70
2019-05-06T09:04:16.591Z,3.73
2019-05-06T09:06:46.739Z,1.87
2019-05-06T09:09:16.449Z,2.30
2019-05-06T09:11:46.251Z,7.47
2019-05-06T09:14:16.109Z,1.43
2019-05-06T09:16:45.821Z,3.63
2019-05-06T09:19:15.498Z,2.77
2019-05-06T09:21:46.355Z,5.20
2019-05-06T09:24:16.260Z,2.33
2019-05-06T09:26:52.196Z,1.40
2019-05-06T09:29:37.984Z,2.30
2019-05-06T09:32:22.522Z,3.37
2019-05-06T09:35:02.888Z,2.83
2019-05-06T09:37:42.876Z,3.80
2019-05-06T09:40:22.626Z,4.27
2019-05-06T09:42:52.062Z,3.90
2019-05-06T09:45:22.775Z,3.43
2019-05-06T09:48:09.131Z,2.50
2019-05-06T09:50:46.104Z,4.00
2019-05-06T09:53:18.353Z,4.97
2019-05-06T09:56:06.942Z,1.93
2019-05-06T09:58:42.617Z,5.90
2019-05-06T10:01:13.133Z,2.77
2019-05-06T10:03:42.823Z,4.83
2019-05-06T10:06:13.231Z,4.77
2019-05-06T10:08:43.315Z,5.57
2019-05-06T10:11:13.006Z,4.27
2019-05-06T10:13:43.144Z,1.70
2019-05-06T10:16:13.272Z,3.23
2019-05-06T10:18:43.039Z,1.40
2019-05-06T10:21:12.810Z,1.37
2019-05-06T10:23:42.576Z,3.13
2019-05-06T10:26:12.929Z,1.50
2019-05-06T10:28:48.125Z,7.47
2019-05-06T10:31:18.804Z,2.40
2019-05-06T10:34:13.284Z,3.07
2019-05-06T10:36:53.281Z,4.80
2019-05-06T10:39:26.210Z,2.80
2019-05-06T10:42:13.304Z,1.60
2019-05-06T10:45:08.164Z,2.00
2019-05-06T10:47:37.901Z,2.40
2019-05-06T10:50:07.681Z,1.93
2019-05-06T10:52:56.408Z,1.30
2019-05-06T10:55:28.314Z,3.13
2019-05-06T10:57:58.343Z,1.40
2019-05-06T11:00:28.065Z,1.80
2019-05-06T11:03:16.853Z,3.77
2019-05-06T11:05:47.126Z,2.50
2019-05-06T11:08:16.802Z,2.97
2019-05-06T11:10:46.536Z,1.37
2019-05-06T11:13:16.874Z,5.03
2019-05-06T11:15:46.597Z,3.17
2019-05-06T11:18:16.420Z,1.50
2019-05-06T11:20:46.163Z,1.57
2019-05-06T11:23:15.848Z,1.70
2019-05-06T11:25:45.521Z,2.30
2019-05-06T11:28:35.229Z,1.57
2019-05-06T11:31:28.787Z,4.80
2019-05-06T11:34:26.331Z,6.53
2019-05-06T11:37:22.976Z,2.37
2019-05-06T11:39:52.889Z,2.60
2019-05-06T11:42:31.687Z,1.63
2019-05-06T11:44:55.104Z,4.23
2019-05-06T11:47:24.872Z,2.70
2019-05-06T11:49:57.046Z,1.47
2019-05-06T11:52:26.882Z,2.80
2019-05-06T11:55:02.053Z,1.63
2019-05-06T11:57:32.615Z,1.20
2019-05-06T12:00:03.132Z,1.40
2019-05-06T12:02:33.138Z,1.20
2019-05-06T12:05:02.805Z,1.40
2019-05-06T12:07:33.186Z,4.93
2019-05-06T12:10:03.115Z,3.23
2019-05-06T12:12:32.831Z,2.70
2019-05-06T12:15:04.266Z,1.20
2019-05-06T12:17:34.342Z,3.47
2019-05-06T12:20:04.206Z,1.20
2019-05-06T12:22:37.021Z,3.03
2019-05-06T12:25:11.695Z,2.93
2019-05-06T12:27:46.750Z,1.13
2019-05-06T12:30:23.104Z,2.33
2019-05-06T12:33:09.717Z,1.83
2019-05-06T12:35:42.792Z,1.97
2019-05-06T12:38:26.455Z,1.67
2019-05-06T12:40:47.444Z,2.63
2019-05-06T12:43:34.624Z,1.17
2019-05-06T12:46:17.195Z,3.20
2019-05-06T12:48:46.887Z,1.83
2019-05-06T12:51:17.981Z,2.53
2019-05-06T12:53:47.695Z,4.27
2019-05-06T12:56:17.436Z,2.23
2019-05-06T12:58:47.234Z,2.30
2019-05-06T13:01:16.922Z,1.93
2019-05-06T13:03:46.615Z,4.87
2019-05-06T13:06:16.469Z,1.83
2019-05-06T13:08:58.865Z,1.00
2019-05-06T13:11:17.537Z,4.40
2019-05-06T13:13:57.493Z,1.93
2019-05-06T13:16:19.411Z,1.67
2019-05-06T13:18:51.788Z,2.03
2019-05-06T13:21:22.326Z,1.80
2019-05-06T13:23:58.538Z,1.67
2019-05-06T13:26:28.287Z,2.67
2019-05-06T13:29:04.263Z,1.30
2019-05-06T13:31:33.174Z,1.10
2019-05-06T13:34:08.725Z,2.00
2019-05-06T13:36:38.511Z,2.07
2019-05-06T13:39:32.689Z,2.40
2019-05-06T13:41:41.955Z,2.30
2019-05-06T13:44:15.903Z,3.47
2019-05-06T13:46:55.597Z,3.33
2019-05-06T13:49:37.221Z,4.97
2019-05-06T13:52:09.116Z,1.23
2019-05-06T13:54:38.947Z,1.03
2019-05-06T13:57:08.740Z,2.17
2019-05-06T13:59:38.432Z,2.37
2019-05-06T14:02:34.018Z,2.00
2019-05-06T14:05:05.237Z,1.23
2019-05-06T14:07:34.978Z,1.83
2019-05-06T14:10:05.593Z,3.57
2019-05-06T14:12:35.323Z,5.60
2019-05-06T14:15:05.934Z,3.00
2019-05-06T14:17:35.723Z,3.60
2019-05-06T14:20:06.798Z,1.27
2019-05-06T14:22:36.643Z,3.33
2019-05-06T14:25:25.477Z,1.37
2019-05-06T14:27:58.951Z,1.50
2019-05-06T14:30:46.316Z,1.20
2019-05-06T14:33:17.619Z,2.20
2019-05-06T14:35:47.332Z,3.93
2019-05-06T14:38:17.065Z,1.73
2019-05-06T14:41:26.815Z,1.17
2019-05-06T14:43:54.973Z,3.83
2019-05-06T14:46:24.787Z,1.70
2019-05-06T14:48:54.571Z,3.27
2019-05-06T14:51:24.382Z,2.00
2019-05-06T14:53:54.091Z,3.43
2019-05-06T14:56:46.053Z,1.50
2019-05-06T14:59:23.428Z,1.10
2019-05-06T15:01:59.212Z,2.47
2019-05-06T15:04:28.976Z,1.60
2019-05-06T15:06:58.736Z,1.37
2019-05-06T15:09:28.471Z,3.60
2019-05-06T15:11:58.732Z,1.00
2019-05-06T15:14:28.441Z,2.10
2019-05-06T15:16:58.131Z,1.63
2019-05-06T15:19:27.957Z,5.03
2019-05-06T15:21:57.679Z,2.57
2019-05-06T15:24:27.405Z,1.67
2019-05-06T15:26:57.184Z,3.13
2019-05-06T15:29:26.884Z,3.00
2019-05-06T15:32:24.638Z,1.03
2019-05-06T15:35:28.613Z,1.57
2019-05-06T15:38:02.236Z,4.57
2019-05-06T15:40:36.426Z,4.00
2019-05-06T15:43:03.737Z,3.12
2019-05-06T15:45:33.521Z,2.43
2019-05-06T15:48:03.276Z,3.63
2019-05-06T15:50:33.018Z,4.37
2019-05-06T15:53:02.777Z,8.57
2019-05-06T15:55:32.823Z,2.93
2019-05-06T15:58:03.615Z,2.90
2019-05-06T16:00:34.299Z,3.67
2019-05-06T16:03:04.234Z,2.67
2019-05-06T16:05:34.423Z,1.83
2019-05-06T16:08:04.743Z,2.90
2019-05-06T16:10:50.400Z,7.40
2019-05-06T16:13:05.880Z,4.07
2019-05-06T16:15:35.692Z,2.43
2019-05-06T16:18:05.512Z,2.83
2019-05-06T16:20:35.318Z,3.50
2019-05-06T16:23:19.898Z,4.03
2019-05-06T16:25:52.260Z,1.67
2019-05-06T16:28:22.472Z,3.27
2019-05-06T16:30:53.516Z,3.30
2019-05-06T16:33:23.740Z,4.27
2019-05-06T16:35:53.547Z,3.20
2019-05-06T16:38:23.303Z,3.47
2019-05-06T16:40:57.695Z,6.80
2019-05-06T16:43:26.031Z,8.07
2019-05-06T16:45:55.821Z,2.83
2019-05-06T16:48:25.573Z,4.73
2019-05-06T16:50:55.561Z,4.40
2019-05-06T16:53:25.335Z,5.53
2019-05-06T16:56:09.582Z,5.20
2019-05-06T16:58:46.669Z,5.20
2019-05-06T17:01:15.204Z,9.80
2019-05-06T17:03:56.888Z,3.70
2019-05-06T17:06:33.027Z,5.33
2019-05-06T17:09:17.482Z,4.67
2019-05-06T17:11:36.081Z,5.17
2019-05-06T17:14:07.442Z,6.27
2019-05-06T17:16:44.448Z,6.57
2019-05-06T17:19:22.997Z,3.97
2019-05-06T17:21:59.734Z,11.90
2019-05-06T17:24:29.469Z,14.97
2019-05-06T17:27:11.985Z,7.20
2019-05-06T17:30:12.708Z,8.53
2019-05-06T17:36:25.700Z,4.57
2019-05-06T17:39:13.111Z,6.67
2019-05-06T17:42:11.077Z,10.43
2019-05-06T17:44:42.877Z,8.13
2019-05-06T17:47:32.079Z,6.53
2019-05-06T17:50:09.362Z,6.53
2019-05-06T17:52:48.955Z,6.47
2019-05-06T17:55:28.808Z,5.70
2019-05-06T17:58:07.784Z,4.50
2019-05-06T18:00:37.569Z,5.93
2019-05-06T18:03:07.344Z,3.73
2019-05-06T18:05:44.129Z,8.97
2019-05-06T18:08:20.170Z,7.00
2019-05-06T18:10:55.804Z,6.23
2019-05-06T18:13:33.188Z,4.10
2019-05-06T18:16:12.954Z,5.60
2019-05-06T18:18:41.432Z,4.90
2019-05-06T18:21:12.311Z,5.20
2019-05-06T18:23:42.641Z,5.33
2019-05-06T18:26:12.450Z,6.13
2019-05-06T18:28:43.136Z,11.53
2019-05-06T18:31:12.901Z,11.97
2019-05-06T18:33:43.148Z,21.13
2019-05-06T18:36:13.476Z,27.43
2019-05-06T18:38:43.377Z,23.77
2019-05-06T18:41:13.136Z,19.97
2019-05-06T18:43:42.904Z,22.53
2019-05-06T18:46:12.711Z,15.83
2019-05-06T18:48:42.821Z,14.57
2019-05-06T18:51:12.746Z,17.67
2019-05-06T18:53:42.511Z,13.37
2019-05-06T18:56:12.742Z,11.77
2019-05-06T18:58:45.508Z,10.83
2019-05-06T19:01:15.255Z,12.63
2019-05-06T19:03:54.835Z,16.10
2019-05-06T19:06:24.560Z,11.97
2019-05-06T19:09:03.647Z,15.37
2019-05-06T19:11:33.405Z,14.00
2019-05-06T19:14:03.154Z,16.27
2019-05-06T19:16:48.195Z,11.83
2019-05-06T19:19:06.010Z,12.87
2019-05-06T19:21:35.869Z,13.17
2019-05-06T19:24:12.925Z,13.93
2019-05-06T19:26:46.210Z,10.73
2019-05-06T19:29:19.174Z,13.20
2019-05-06T19:31:52.163Z,11.93
2019-05-06T19:34:23.608Z,10.17
2019-05-06T19:37:02.429Z,10.40
2019-05-06T19:39:37.648Z,13.07
2019-05-06T19:42:12.889Z,15.03
2019-05-06T19:44:48.118Z,14.30
2019-05-06T19:47:27.041Z,19.20
2019-05-06T19:50:10.649Z,25.40
2019-05-06T19:52:50.304Z,23.70
2019-05-06T19:55:29.260Z,20.80
2019-05-06T19:57:58.980Z,19.13
2019-05-06T20:00:28.674Z,18.87
2019-05-06T20:02:58.365Z,24.60
2019-05-06T20:05:37.232Z,22.93
2019-05-06T20:08:16.629Z,19.07
2019-05-06T20:11:02.171Z,24.33
2019-05-06T20:13:32.312Z,26.23
2019-05-06T20:16:02.775Z,26.93
2019-05-06T20:18:35.883Z,35.43
2019-05-06T20:21:08.428Z,42.87
2019-05-06T20:23:39.680Z,29.40
2019-05-06T20:26:09.430Z,39.20
2019-05-06T20:28:39.179Z,27.93
2019-05-06T20:31:08.914Z,25.17
2019-05-06T20:33:38.629Z,23.10
2019-05-06T20:36:08.698Z,14.17
2019-05-06T20:38:38.399Z,17.03
2019-05-06T20:41:08.086Z,12.03
2019-05-06T20:43:37.862Z,12.33
2019-05-06T20:46:07.586Z,16.00
2019-05-06T20:48:37.549Z,14.77
2019-05-06T20:51:07.300Z,15.63
2019-05-06T20:53:39.863Z,15.30
2019-05-06T20:56:09.592Z,17.50
2019-05-06T20:58:39.376Z,16.70
2019-05-06T21:01:09.110Z,16.97
2019-05-06T21:03:38.975Z,15.73
2019-05-06T21:06:08.723Z,16.93
2019-05-06T21:08:42.198Z,16.97
2019-05-06T21:11:25.830Z,18.00
2019-05-06T21:13:43.723Z,17.53
2019-05-06T21:16:13.474Z,17.80
2019-05-06T21:18:43.181Z,17.57
2019-05-06T21:21:13.580Z,20.33
2019-05-06T21:24:10.031Z,17.03
2019-05-06T21:26:42.314Z,20.30
2019-05-06T21:29:12.743Z,21.73
2019-05-06T21:31:42.732Z,16.23
2019-05-06T21:34:12.926Z,14.73
2019-05-06T21:36:43.155Z,12.40
2019-05-06T21:39:13.212Z,13.40
2019-05-06T21:41:43.315Z,10.93
2019-05-06T21:44:13.421Z,15.67
2019-05-06T21:46:43.499Z,11.13
2019-05-06T21:49:13.260Z,11.40
2019-05-06T21:51:45.712Z,15.90
2019-05-06T21:54:15.525Z,12.23
2019-05-06T21:56:45.269Z,13.10
2019-05-06T21:59:15.017Z,10.83
2019-05-06T22:01:45.001Z,11.33
2019-05-06T22:04:14.733Z,9.43
2019-05-06T22:06:45.569Z,10.60
2019-05-06T22:09:15.531Z,9.87
2019-05-06T22:11:45.334Z,9.93
2019-05-06T22:14:15.051Z,10.80
2019-05-06T22:16:44.965Z,9.13
2019-05-06T22:19:14.763Z,10.00
2019-05-06T22:22:03.374Z,11.37
2019-05-06T22:24:54.980Z,13.67
2019-05-06T22:27:22.397Z,10.17
2019-05-06T22:29:52.387Z,10.30
2019-05-06T22:32:23.236Z,10.40
2019-05-06T22:34:53.028Z,11.17
2019-05-06T22:37:22.773Z,9.67
2019-05-06T22:39:52.835Z,11.20
2019-05-06T22:42:24.974Z,10.30
2019-05-06T22:44:54.172Z,10.57
2019-05-06T22:47:23.894Z,8.53
2019-05-06T22:49:54.367Z,11.30
2019-05-06T22:52:24.545Z,8.53
2019-05-06T22:54:54.283Z,9.50
2019-05-06T22:57:24.021Z,10.20
2019-05-06T22:59:53.750Z,9.03
2019-05-06T23:02:42.376Z,13.43
2019-05-06T23:05:12.385Z,8.83
2019-05-06T23:07:42.362Z,10.30
2019-05-06T23:10:13.291Z,8.30
2019-05-06T23:12:43.467Z,11.70
2019-05-06T23:15:13.275Z,9.93
2019-05-06T23:17:43.064Z,10.50
2019-05-06T23:20:12.755Z,12.17
2019-05-06T23:22:42.479Z,12.37
2019-05-06T23:25:13.812Z,10.40
2019-05-06T23:27:44.229Z,14.57
2019-05-06T23:30:14.470Z,11.73
2019-05-06T23:32:44.186Z,10.07
2019-05-06T23:35:14.048Z,15.07
2019-05-06T23:38:19.224Z,11.10
2019-05-06T23:41:24.818Z,10.97
2019-05-06T23:44:43.102Z,12.53
2019-05-06T23:47:36.885Z,8.63
2019-05-06T23:50:42.874Z,13.43
2019-05-06T23:53:48.320Z,10.60
2019-05-06T23:56:43.245Z,13.50
2019-05-06T23:59:15.740Z,12.93
